Time;durP1;ratioP1;P1;durP2;ratioP2;P2;SDS_P1;SDS_P2;PMS_P1;PMS_P2;Temp;Humidity;BMP_temperature;BMP_pressure;BME280_temperature;BME280_humidity;BME280_pressure;Samples;Min_cycle;Max_cycle;Signal;HPM_P1;HPM_P2
2024/01/04 00:02:59;;;;;;;10.27;5.70;;;;;;;6.52;100.00;97981.78;10418688;28;20719;-82
2024/01/04 00:08:04;;;;;;;8.05;4.47;;;;;;;5.97;100.00;97978.56;10449254;28;20471;-82
2024/01/04 00:13:07;;;;;;;7.43;5.10;;;;;;;6.28;100.00;98003.81;10469637;28;20156;-81
2024/01/04 00:18:10;;;;;;;5.82;3.60;;;;;;;6.06;100.00;98004.28;10482860;28;20047;-81
2024/01/04 00:23:15;;;;;;;9.88;5.55;;;;;;;6.39;100.00;98005.38;10474300;28;20048;-81
2024/01/04 00:28:18;;;;;;;13.20;5.75;;;;;;;6.38;100.00;98020.53;10488434;28;20518;-81
2024/01/04 00:33:22;;;;;;;7.50;3.97;;;;;;;6.46;100.00;98019.75;10495562;28;20084;-82
2024/01/04 00:38:26;;;;;;;7.30;4.25;;;;;;;6.14;100.00;98028.31;10495973;28;20106;-83
2024/01/04 00:43:29;;;;;;;6.32;3.88;;;;;;;5.97;100.00;98030.00;10497403;28;20049;-82
2024/01/04 00:48:32;;;;;;;11.75;4.85;;;;;;;6.18;100.00;98033.22;10481452;28;20041;-82
2024/01/04 00:53:37;;;;;;;9.65;4.20;;;;;;;6.26;100.00;98047.59;10478954;28;20055;-83
2024/01/04 00:58:40;;;;;;;7.80;4.20;;;;;;;6.16;100.00;98051.16;10476062;28;20045;-82
2024/01/04 01:03:43;;;;;;;6.90;3.33;;;;;;;5.99;100.00;98067.19;10500963;28;20210;-81
2024/01/04 01:08:47;;;;;;;7.50;3.80;;;;;;;5.82;100.00;98061.69;10475254;28;20052;-81
2024/01/04 01:13:51;;;;;;;8.18;3.90;;;;;;;5.77;100.00;98085.25;10487825;28;20048;-81
2024/01/04 01:18:54;;;;;;;9.40;3.95;;;;;;;5.55;100.00;98085.69;10493515;28;20046;-83
2024/01/04 01:23:58;;;;;;;7.95;3.42;;;;;;;5.38;100.00;98104.13;10505193;28;20041;-86
2024/01/04 01:29:01;;;;;;;6.25;2.80;;;;;;;5.34;100.00;98115.19;10457060;28;20083;-84
2024/01/04 01:34:05;;;;;;;7.22;2.80;;;;;;;5.45;100.00;98138.97;10464138;28;20052;-83
2024/01/04 01:39:09;;;;;;;3.53;2.33;;;;;;;5.22;100.00;98155.31;10498329;28;20052;-81
2024/01/04 01:44:12;;;;;;;4.35;2.63;;;;;;;5.43;100.00;98149.78;10491447;28;20155;-81
2024/01/04 01:49:16;;;;;;;3.92;2.38;;;;;;;5.44;100.00;98145.28;10468207;28;20045;-81
2024/01/04 01:54:22;;;;;;;6.45;2.38;;;;;;;5.41;100.00;98167.72;10470333;28;20060;-80
2024/01/04 01:59:27;;;;;;;7.10;3.22;;;;;;;5.43;100.00;98189.72;10459582;28;20090;-81
2024/01/04 02:04:30;;;;;;;3.38;2.33;;;;;;;5.71;100.00;98174.59;10485325;28;20327;-82
2024/01/04 02:09:35;;;;;;;5.85;3.30;;;;;;;5.49;100.00;98202.44;10493581;28;20408;-81
2024/01/04 02:14:38;;;;;;;7.20;3.65;;;;;;;5.65;100.00;98206.28;10463659;28;20041;-81
2024/01/04 02:19:42;;;;;;;6.35;3.80;;;;;;;5.63;100.00;98208.28;10479206;28;20139;-81
2024/01/04 02:24:46;;;;;;;6.00;4.15;;;;;;;5.90;100.00;98224.28;10487762;28;20048;-80
2024/01/04 02:29:49;;;;;;;7.70;4.50;;;;;;;5.90;100.00;98234.13;10487127;28;20696;-81
2024/01/04 02:34:52;;;;;;;7.70;4.22;;;;;;;5.62;100.00;98236.75;10465462;28;20048;-80
2024/01/04 02:39:57;;;;;;;5.75;4.20;;;;;;;5.67;100.00;98242.47;10485163;28;20041;-82
2024/01/04 02:44:59;;;;;;;5.97;4.38;;;;;;;5.68;100.00;98248.66;10475160;28;20470;-81
2024/01/04 02:50:03;;;;;;;5.53;3.53;;;;;;;5.61;100.00;98272.34;10471759;28;20052;-82
2024/01/04 02:55:08;;;;;;;5.07;2.78;;;;;;;5.39;100.00;98281.50;10478677;28;20050;-81
2024/01/04 03:00:12;;;;;;;3.83;2.88;;;;;;;5.46;100.00;98285.28;10492552;28;20047;-81
2024/01/04 03:05:15;;;;;;;4.88;2.63;;;;;;;5.50;100.00;98283.16;10465437;28;20407;-80
2024/01/04 03:10:20;;;;;;;2.90;2.10;;;;;;;5.35;100.00;98301.41;10461284;28;20409;-81
2024/01/04 03:15:23;;;;;;;5.22;2.00;;;;;;;5.48;100.00;98309.09;10463814;28;20049;-80
2024/01/04 03:20:26;;;;;;;4.97;2.30;;;;;;;5.62;100.00;98321.13;10468699;28;20123;-81
2024/01/04 03:25:30;;;;;;;3.75;2.05;;;;;;;5.53;100.00;98337.97;10484614;28;20048;-80
2024/01/04 03:30:33;;;;;;;5.22;2.28;;;;;;;5.58;100.00;98346.38;10471893;28;20049;-81
2024/01/04 03:35:37;;;;;;;4.05;1.85;;;;;;;5.48;100.00;98363.19;10510027;28;20066;-80
2024/01/04 03:40:41;;;;;;;2.72;1.90;;;;;;;5.62;100.00;98364.59;10478825;28;20411;-82
2024/01/04 03:45:44;;;;;;;4.15;2.28;;;;;;;5.72;100.00;98381.38;10482501;28;20088;-83
2024/01/04 03:50:47;;;;;;;6.70;2.00;;;;;;;5.52;100.00;98393.06;10468132;28;20072;-82
2024/01/04 03:55:51;;;;;;;1.55;1.35;;;;;;;5.58;100.00;98384.47;10479169;28;20494;-81
2024/01/04 04:00:54;;;;;;;1.75;1.15;;;;;;;5.32;100.00;98386.88;10482034;28;20044;-82
2024/01/04 04:05:58;;;;;;;0.35;0.35;;;;;;;5.06;100.00;98397.22;10477274;28;20562;-81
2024/01/04 04:11:02;;;;;;;2.60;0.55;;;;;;;5.41;100.00;98418.00;10479221;28;20044;-81
2024/01/04 04:16:05;;;;;;;1.45;0.38;;;;;;;5.21;100.00;98426.91;10467675;28;20550;-81
2024/01/04 04:21:08;;;;;;;0.50;0.25;;;;;;;5.15;100.00;98448.78;10484171;28;20041;-82
2024/01/04 04:26:13;;;;;;;3.17;0.20;;;;;;;5.33;100.00;98452.44;10471904;28;20056;-81
2024/01/04 04:31:16;;;;;;;0.55;0.30;;;;;;;5.21;100.00;98458.84;10494211;28;20076;-81
2024/01/04 04:36:19;;;;;;;1.38;0.30;;;;;;;5.21;100.00;98458.84;10463769;28;20044;-82
2024/01/04 04:41:24;;;;;;;0.65;0.30;;;;;;;4.95;100.00;98477.97;10477335;28;20045;-81
2024/01/04 04:46:27;;;;;;;0.10;0.10;;;;;;;4.79;100.00;98469.63;10492535;28;20052;-81
2024/01/04 04:51:30;;;;;;;0.52;0.20;;;;;;;4.51;100.00;98480.00;10466242;28;20412;-81
2024/01/04 04:56:34;;;;;;;1.25;0.30;;;;;;;4.78;100.00;98503.38;10475781;28;20073;-82
2024/01/04 05:01:39;;;;;;;0.20;0.10;;;;;;;4.59;100.00;98509.44;10472449;28;20036;-82
2024/01/04 05:06:42;;;;;;;0.45;0.30;;;;;;;4.81;100.00;98526.22;10481809;28;20048;-81
2024/01/04 05:11:47;;;;;;;0.75;0.35;;;;;;;4.71;100.00;98526.16;10460034;28;20045;-82
2024/01/04 05:16:50;;;;;;;0.15;0.10;;;;;;;5.03;100.00;98539.34;10466965;28;20530;-81
2024/01/04 05:21:53;;;;;;;1.88;0.30;;;;;;;4.55;100.00;98539.94;10497315;28;20056;-81
2024/01/04 05:26:58;;;;;;;0.93;0.20;;;;;;;4.80;100.00;98554.63;10502554;28;20068;-82
2024/01/04 05:32:01;;;;;;;1.05;0.30;;;;;;;5.08;100.00;98564.75;10493064;28;20785;-83
2024/01/04 05:37:04;;;;;;;1.52;0.50;;;;;;;4.96;100.00;98577.25;10502345;28;20127;-81
2024/01/04 05:42:09;;;;;;;1.23;0.25;;;;;;;4.49;100.00;98604.25;10507830;28;20052;-82
2024/01/04 05:47:12;;;;;;;2.58;0.80;;;;;;;5.04;100.00;98612.03;10529526;28;20103;-83
2024/01/04 05:52:15;;;;;;;0.75;0.63;;;;;;;4.77;100.00;98620.53;10511602;28;20052;-83
2024/01/04 05:57:19;;;;;;;4.25;0.85;;;;;;;4.69;100.00;98618.56;10512929;28;20638;-82
2024/01/04 06:02:26;;;;;;;1.23;0.60;;;;;;;4.47;100.00;98632.81;10494119;28;20048;-80
2024/01/04 06:07:29;;;;;;;1.33;0.57;;;;;;;4.65;100.00;98642.88;10495403;28;20038;-82
2024/01/04 06:12:33;;;;;;;1.25;0.47;;;;;;;4.51;100.00;98655.50;10495306;28;20516;-82
2024/01/04 06:17:36;;;;;;;3.30;0.80;;;;;;;4.11;100.00;98671.22;10488022;28;20073;-83
2024/01/04 06:22:40;;;;;;;2.95;0.93;;;;;;;4.19;100.00;98695.34;10505030;28;20079;-82
2024/01/04 06:27:44;;;;;;;1.67;0.93;;;;;;;4.12;100.00;98703.00;10498084;28;20045;-81
2024/01/04 06:32:47;;;;;;;3.17;1.13;;;;;;;4.31;100.00;98707.66;10498680;28;20045;-82
2024/01/04 06:37:51;;;;;;;4.25;1.48;;;;;;;4.30;100.00;98702.47;10503761;28;20052;-82
2024/01/04 06:42:55;;;;;;;5.07;1.10;;;;;;;4.02;100.00;98723.28;10486688;28;20040;-82
2024/01/04 06:47:59;;;;;;;4.28;1.20;;;;;;;4.46;100.00;98736.63;10503039;28;20137;-81
2024/01/04 06:53:03;;;;;;;3.95;1.33;;;;;;;4.65;100.00;98735.94;10477146;28;20041;-82
2024/01/04 06:58:09;;;;;;;4.55;1.27;;;;;;;5.04;100.00;98753.94;10482278;28;20486;-82
2024/01/04 07:03:12;;;;;;;3.78;1.35;;;;;;;4.77;100.00;98759.72;10508939;28;20048;-82
2024/01/04 07:08:16;;;;;;;5.13;1.67;;;;;;;4.57;100.00;98777.31;10486349;28;20095;-80
2024/01/04 07:13:20;;;;;;;5.65;1.75;;;;;;;4.54;100.00;98779.38;10503321;28;20075;-82
2024/01/04 07:18:23;;;;;;;8.27;1.48;;;;;;;4.09;100.00;98782.97;10498561;28;20040;-82
2024/01/04 07:23:26;;;;;;;2.20;1.73;;;;;;;4.31;100.00;98794.53;10489877;28;20051;-82
2024/01/04 07:28:31;;;;;;;3.67;1.42;;;;;;;4.66;100.00;98810.28;10494675;28;20147;-83
2024/01/04 07:33:33;;;;;;;1.73;1.33;;;;;;;4.63;100.00;98829.16;10497896;28;20117;-79
2024/01/04 07:38:37;;;;;;;3.92;1.33;;;;;;;4.59;100.00;98841.00;10503154;28;20068;-79
2024/01/04 07:43:41;;;;;;;3.65;1.48;;;;;;;4.56;100.00;98836.78;10503042;28;20041;-80
2024/01/04 07:48:44;;;;;;;3.63;1.60;;;;;;;4.42;100.00;98847.69;10513554;28;20044;-80
2024/01/04 07:53:48;;;;;;;5.88;1.90;;;;;;;4.53;100.00;98858.31;10502179;28;20052;-81
2024/01/04 07:58:53;;;;;;;7.50;1.98;;;;;;;3.92;100.00;98868.44;10525463;28;20045;-81
2024/01/04 08:03:56;;;;;;;7.38;1.50;;;;;;;4.65;100.00;98883.06;10523972;28;20041;-80
2024/01/04 08:08:59;;;;;;;3.75;1.55;;;;;;;4.72;100.00;98894.06;10514927;28;20059;-82
2024/01/04 08:14:04;;;;;;;5.47;1.38;;;;;;;4.51;100.00;98897.47;10506577;28;20048;-81
2024/01/04 08:19:07;;;;;;;4.32;1.02;;;;;;;4.71;100.00;98901.19;10492597;28;20068;-79
2024/01/04 08:24:10;;;;;;;5.78;1.17;;;;;;;4.06;100.00;98915.19;10498593;28;20045;-81
2024/01/04 08:29:14;;;;;;;9.07;1.13;;;;;;;4.56;100.00;98913.06;10495379;28;20518;-80
2024/01/04 08:34:17;;;;;;;2.22;0.85;;;;;;;4.79;98.95;98920.03;10500461;28;20116;-79
2024/01/04 08:39:21;;;;;;;4.72;1.23;;;;;;;4.64;97.89;98925.75;10508487;28;20036;-79
2024/01/04 08:44:26;;;;;;;2.53;1.13;;;;;;;4.51;98.98;98931.19;10489744;28;20051;-80
2024/01/04 08:49:29;;;;;;;4.55;1.25;;;;;;;4.85;97.03;98942.66;10470417;28;20511;-79
2024/01/04 08:54:33;;;;;;;3.67;1.02;;;;;;;4.44;96.00;98937.94;10491048;28;20033;-79
2024/01/04 08:59:37;;;;;;;2.17;0.70;;;;;;;4.96;95.57;98950.59;10500588;28;20071;-79
2024/01/04 09:04:40;;;;;;;3.88;1.00;;;;;;;4.51;96.80;98955.13;10503604;28;20404;-79
2024/01/04 09:09:44;;;;;;;1.45;0.95;;;;;;;4.80;96.34;98959.00;10504062;28;20045;-79
2024/01/04 09:14:48;;;;;;;5.03;1.08;;;;;;;5.06;95.04;98969.38;10486059;28;20120;-79
2024/01/04 09:19:52;;;;;;;2.20;1.00;;;;;;;5.03;94.82;98973.13;10504311;28;20049;-80
2024/01/04 09:24:55;;;;;;;1.65;1.17;;;;;;;4.77;93.89;98990.28;10490605;28;20056;-80
2024/01/04 09:29:59;;;;;;;5.63;1.15;;;;;;;5.02;92.58;98999.88;10477318;28;20534;-79
2024/01/04 09:35:03;;;;;;;3.67;1.13;;;;;;;5.05;92.05;99007.63;10489169;28;20060;-79
2024/01/04 09:40:07;;;;;;;2.97;1.30;;;;;;;4.80;92.42;99020.19;10478034;28;20102;-80
2024/01/04 09:45:18;;;;;;;6.75;1.02;;;;;;;4.78;91.81;99030.09;10499083;28;20498;-79
2024/01/04 09:50:22;;;;;;;2.75;1.05;;;;;;;5.09;88.98;99035.69;10496651;28;20073;-81
2024/01/04 09:55:26;;;;;;;5.72;1.30;;;;;;;4.67;91.64;99042.53;10471571;28;20041;-80
2024/01/04 10:00:31;;;;;;;2.17;0.93;;;;;;;4.81;92.37;99045.81;10493644;28;20040;-80
2024/01/04 10:05:35;;;;;;;5.22;1.58;;;;;;;5.22;90.59;99055.03;10505472;28;20120;-82
2024/01/04 10:10:41;;;;;;;5.40;1.77;;;;;;;5.00;89.89;99069.19;10508305;28;20048;-80
2024/01/04 10:15:48;;;;;;;9.60;1.80;;;;;;;5.53;90.29;99073.03;10503050;28;20040;-81
2024/01/04 10:21:02;;;;;;;3.67;1.35;;;;;;;5.73;89.13;99069.56;10474675;28;20056;-81
2024/01/04 10:26:10;;;;;;;2.40;1.30;;;;;;;5.99;89.70;99069.25;10484291;28;20389;-80
2024/01/04 10:31:14;;;;;;;6.03;1.40;;;;;;;5.92;87.15;99075.09;10497311;28;20055;-80
2024/01/04 10:36:18;;;;;;;3.55;1.38;;;;;;;6.04;86.63;99081.22;10507872;28;20072;-79
2024/01/04 10:41:21;;;;;;;4.05;1.92;;;;;;;5.92;85.76;99076.91;10492796;28;20052;-80
2024/01/04 10:46:25;;;;;;;5.43;1.52;;;;;;;5.45;86.63;99090.44;10499398;28;20777;-79
2024/01/04 10:51:30;;;;;;;2.15;0.98;;;;;;;5.64;86.66;99096.97;10495958;28;20068;-79
2024/01/04 10:56:33;;;;;;;4.53;1.60;;;;;;;5.48;87.09;99102.69;10482065;28;20049;-80
2024/01/04 11:01:39;;;;;;;2.75;1.15;;;;;;;5.56;85.55;99105.56;10492610;28;20040;-80
2024/01/04 11:06:42;;;;;;;7.95;1.42;;;;;;;5.71;85.14;99109.69;10472019;28;20056;-80
2024/01/04 11:11:47;;;;;;;2.47;1.30;;;;;;;6.05;84.77;99117.56;10468770;28;20456;-79
2024/01/04 11:17:13;;;;;;;3.22;1.27;;;;;;;6.24;83.80;99126.72;10495476;28;20067;-79
2024/01/04 11:22:35;;;;;;;2.20;1.20;;;;;;;6.36;83.78;99131.03;10500749;28;20048;-80
2024/01/04 11:27:41;;;;;;;4.20;2.13;;;;;;;6.12;83.17;99126.78;10494438;28;20056;-80
2024/01/04 11:32:46;;;;;;;1.48;1.02;;;;;;;5.85;81.77;99135.19;10504356;28;20646;-79
2024/01/04 11:37:51;;;;;;;1.90;0.93;;;;;;;6.00;83.83;99125.09;10503160;28;20059;-80
2024/01/04 11:42:57;;;;;;;3.25;1.25;;;;;;;6.03;83.84;99129.31;10501460;28;20051;-79
2024/01/04 11:48:02;;;;;;;6.95;1.33;;;;;;;5.97;82.65;99128.00;10507373;28;20100;-80
2024/01/04 11:53:06;;;;;;;3.35;1.30;;;;;;;6.09;83.63;99136.84;10510729;28;20045;-80
2024/01/04 11:58:11;;;;;;;5.15;1.35;;;;;;;6.07;83.16;99141.44;10497922;28;20047;-80
2024/01/04 12:03:17;;;;;;;3.72;1.25;;;;;;;5.86;83.95;99146.69;10506816;28;20048;-80
2024/01/04 12:08:24;;;;;;;4.28;1.58;;;;;;;5.79;82.29;99137.50;10519561;28;20048;-80
2024/01/04 12:13:27;;;;;;;6.07;1.15;;;;;;;5.80;84.27;99125.88;10486125;28;20049;-80
2024/01/04 12:18:33;;;;;;;1.73;1.13;;;;;;;5.91;82.67;99134.69;10495125;28;20052;-79
2024/01/04 12:23:38;;;;;;;4.68;1.63;;;;;;;5.70;84.00;99150.63;10511273;28;20112;-79
2024/01/04 12:28:41;;;;;;;4.07;1.30;;;;;;;5.71;84.70;99152.31;10491399;28;20068;-77
2024/01/04 12:33:50;;;;;;;5.80;1.50;;;;;;;5.40;85.78;99145.06;10477245;28;20041;-79
2024/01/04 12:38:54;;;;;;;6.30;1.42;;;;;;;5.82;84.07;99154.09;10519972;28;20040;-80
2024/01/04 12:43:57;;;;;;;2.92;1.38;;;;;;;6.09;83.53;99155.50;10509787;28;20095;-81
2024/01/04 12:49:08;;;;;;;2.50;1.30;;;;;;;6.23;83.24;99157.88;10519110;28;20090;-79
2024/01/04 12:54:12;;;;;;;3.53;1.00;;;;;;;6.34;85.23;99157.00;10519035;28;20040;-80
2024/01/04 12:59:16;;;;;;;5.90;1.38;;;;;;;6.16;84.94;99170.00;10506890;28;20297;-78
2024/01/04 13:04:21;;;;;;;4.75;1.23;;;;;;;6.04;86.86;99173.69;10492690;28;20078;-80
2024/01/04 13:09:24;;;;;;;4.88;1.05;;;;;;;5.91;86.25;99168.50;10491576;28;20049;-80
2024/01/04 13:14:27;;;;;;;4.35;1.42;;;;;;;5.75;84.19;99176.88;10469938;28;20033;-79
2024/01/04 13:19:31;;;;;;;6.10;1.25;;;;;;;5.57;85.71;99181.88;10497015;28;20123;-80
2024/01/04 13:24:36;;;;;;;2.90;1.40;;;;;;;5.76;87.60;99180.38;10521996;28;20044;-78
2024/01/04 13:29:39;;;;;;;5.82;1.25;;;;;;;5.76;86.92;99185.72;10524235;28;20104;-80
2024/01/04 13:34:44;;;;;;;3.67;1.33;;;;;;;5.78;87.59;99192.63;10522500;28;20041;-77
2024/01/04 13:39:47;;;;;;;3.85;1.40;;;;;;;5.78;87.77;99194.44;10518880;28;20028;-79
2024/01/04 13:44:50;;;;;;;2.63;1.10;;;;;;;5.83;88.43;99201.09;10525021;28;20071;-80
2024/01/04 13:49:55;;;;;;;3.58;1.70;;;;;;;5.85;88.16;99204.50;10516344;28;20040;-80
2024/01/04 13:54:58;;;;;;;4.53;1.38;;;;;;;5.86;88.32;99205.34;10514668;28;20040;-79
2024/01/04 14:00:03;;;;;;;5.25;1.30;;;;;;;5.86;87.84;99211.50;10510849;28;20041;-80
2024/01/04 14:05:15;;;;;;;4.20;1.40;;;;;;;5.78;86.67;99216.59;10497478;28;20044;-80
2024/01/04 14:10:18;;;;;;;3.42;1.30;;;;;;;5.80;87.28;99222.66;10470705;28;20063;-81
2024/01/04 14:15:22;;;;;;;3.17;1.10;;;;;;;5.70;86.19;99232.34;10477431;28;20048;-80
2024/01/04 14:20:28;;;;;;;3.70;1.52;;;;;;;5.69;86.61;99228.00;10494036;28;20056;-80
2024/01/04 14:25:31;;;;;;;6.50;2.92;;;;;;;5.75;87.08;99238.16;10496256;28;20044;-80
2024/01/04 14:30:34;;;;;;;4.85;1.80;;;;;;;5.78;87.54;99245.91;10488749;28;20049;-78
2024/01/04 14:35:39;;;;;;;4.57;1.50;;;;;;;5.81;87.72;99247.50;10507627;28;20105;-80
2024/01/04 14:40:42;;;;;;;3.17;1.55;;;;;;;5.79;87.70;99260.06;10510279;28;20068;-80
2024/01/04 14:45:46;;;;;;;6.47;1.73;;;;;;;5.75;87.79;99264.81;10489948;28;20127;-81
2024/01/04 14:50:51;;;;;;;4.85;2.13;;;;;;;5.66;87.76;99268.22;10495551;28;20091;-80
2024/01/04 14:55:54;;;;;;;8.68;2.08;;;;;;;5.58;89.06;99263.47;10476196;28;20041;-80
2024/01/04 15:00:57;;;;;;;8.32;2.33;;;;;;;5.52;90.01;99277.28;10480693;28;20071;-80
2024/01/04 15:06:02;;;;;;;4.57;1.95;;;;;;;5.50;90.80;99284.53;10495350;28;20441;-80
2024/01/04 15:11:05;;;;;;;5.10;2.20;;;;;;;5.41;90.52;99280.78;10500378;28;20268;-80
2024/01/04 15:16:08;;;;;;;5.57;2.67;;;;;;;5.42;91.10;99278.94;10490706;28;20045;-80
2024/01/04 15:21:13;;;;;;;8.80;2.70;;;;;;;5.44;91.60;99283.19;10492983;28;20530;-78
2024/01/04 15:26:16;;;;;;;9.85;3.15;;;;;;;5.43;91.75;99286.84;10491106;28;20044;-80
2024/01/04 15:31:19;;;;;;;4.22;2.72;;;;;;;5.43;92.27;99296.63;10490287;28;20037;-80
2024/01/04 15:36:24;;;;;;;5.15;2.40;;;;;;;5.39;92.65;99300.50;10505025;28;20136;-80
2024/01/04 15:41:27;;;;;;;6.40;2.83;;;;;;;5.38;92.77;99309.47;10499971;28;20052;-80
2024/01/04 15:46:30;;;;;;;8.07;2.88;;;;;;;5.32;93.50;99315.22;10498622;28;20057;-80
2024/01/04 15:51:36;;;;;;;7.65;3.05;;;;;;;5.22;94.20;99315.94;10494948;28;20072;-80
2024/01/04 15:56:39;;;;;;;7.68;2.65;;;;;;;5.17;95.11;99323.41;10495112;28;20128;-81
2024/01/04 16:01:42;;;;;;;7.75;2.75;;;;;;;5.08;94.45;99318.81;10502312;28;20068;-79
2024/01/04 16:06:46;;;;;;;7.22;2.97;;;;;;;5.04;94.45;99320.81;10498265;28;20072;-78
2024/01/04 16:11:49;;;;;;;6.03;2.67;;;;;;;5.12;95.44;99314.94;10491074;28;20040;-79
2024/01/04 16:16:52;;;;;;;7.50;2.35;;;;;;;5.16;95.67;99323.56;10506451;28;20752;-80
2024/01/04 16:21:58;;;;;;;6.00;2.25;;;;;;;5.03;95.32;99324.47;10511980;28;20051;-80
2024/01/04 16:27:02;;;;;;;6.20;2.28;;;;;;;4.92;97.49;99327.03;10514863;28;20472;-80
2024/01/04 16:32:06;;;;;;;7.47;2.85;;;;;;;4.87;98.45;99329.19;10507507;28;20045;-78
2024/01/04 16:37:10;;;;;;;6.03;2.25;;;;;;;4.92;99.76;99326.19;10503511;28;20136;-80
2024/01/04 16:42:13;;;;;;;7.80;2.67;;;;;;;4.96;100.00;99327.66;10502403;28;20079;-81
2024/01/04 16:47:17;;;;;;;10.13;2.42;;;;;;;5.02;100.00;99330.75;10484895;28;20140;-79
2024/01/04 16:52:22;;;;;;;6.05;2.78;;;;;;;5.01;100.00;99339.69;10519485;28;20075;-80
2024/01/04 16:57:25;;;;;;;6.95;3.08;;;;;;;5.00;100.00;99329.16;10531913;28;20028;-78
2024/01/04 17:02:28;;;;;;;8.85;5.10;;;;;;;5.04;100.00;99333.28;10498935;28;20083;-79
2024/01/04 17:07:32;;;;;;;10.18;4.40;;;;;;;5.06;100.00;99342.00;10497920;28;20060;-79
2024/01/04 17:12:36;;;;;;;18.15;5.10;;;;;;;5.09;100.00;99348.94;10500693;28;20047;-79
2024/01/04 17:17:39;;;;;;;12.00;5.63;;;;;;;5.02;100.00;99340.56;10495303;28;20049;-80
2024/01/04 17:22:44;;;;;;;12.25;5.63;;;;;;;5.01;100.00;99341.50;10503714;28;20385;-80
2024/01/04 17:27:47;;;;;;;9.48;4.90;;;;;;;4.96;100.00;99349.78;10511286;28;20067;-80
2024/01/04 17:32:52;;;;;;;13.52;5.45;;;;;;;4.95;100.00;99352.59;10520733;28;20057;-80
2024/01/04 17:37:58;;;;;;;13.55;4.90;;;;;;;4.95;100.00;99361.41;10504980;28;20066;-79
2024/01/04 17:43:00;;;;;;;11.18;5.80;;;;;;;4.82;100.00;99357.94;10502536;28;20044;-79
2024/01/04 17:48:04;;;;;;;9.70;5.47;;;;;;;4.77;100.00;99355.66;10500370;28;20112;-79
2024/01/04 17:53:09;;;;;;;11.80;4.80;;;;;;;4.75;100.00;99344.25;10515252;28;20060;-79
2024/01/04 17:58:12;;;;;;;11.30;5.85;;;;;;;4.72;100.00;99338.31;10496707;28;20444;-79
2024/01/04 18:03:15;;;;;;;8.63;5.13;;;;;;;4.79;100.00;99350.19;10507864;28;20353;-79
2024/01/04 18:08:20;;;;;;;12.68;5.88;;;;;;;4.81;100.00;99359.75;10494772;28;20087;-80
2024/01/04 18:13:23;;;;;;;11.98;5.95;;;;;;;4.78;100.00;99367.13;10516370;28;20060;-80
2024/01/04 18:18:26;;;;;;;12.98;6.75;;;;;;;4.75;100.00;99373.53;10509134;28;20048;-79
2024/01/04 18:23:32;;;;;;;10.93;6.85;;;;;;;4.72;100.00;99370.25;10509741;28;20037;-80
2024/01/04 18:28:35;;;;;;;12.18;6.15;;;;;;;4.71;100.00;99374.69;10495967;28;20049;-79
2024/01/04 18:33:38;;;;;;;10.80;6.40;;;;;;;4.77;100.00;99371.59;10504740;28;20043;-78
2024/01/04 18:38:43;;;;;;;11.02;6.65;;;;;;;4.79;100.00;99374.97;10495128;28;20049;-80
2024/01/04 18:43:56;;;;;;;12.27;6.80;;;;;;;4.78;100.00;99378.63;10491621;28;20059;-80
2024/01/04 18:48:59;;;;;;;14.75;6.97;;;;;;;4.75;100.00;99381.50;10504838;28;20092;-79
2024/01/04 18:54:04;;;;;;;14.48;6.68;;;;;;;4.62;100.00;99376.22;10489802;28;20470;-79
2024/01/04 18:59:10;;;;;;;13.68;8.30;;;;;;;4.53;100.00;99376.03;10496298;28;20064;-79
2024/01/04 19:04:13;;;;;;;14.65;8.27;;;;;;;4.47;100.00;99357.84;10513230;28;20056;-79
2024/01/04 19:09:19;;;;;;;15.60;8.85;;;;;;;4.48;100.00;99386.16;10485292;28;20064;-79
2024/01/04 19:14:22;;;;;;;14.27;8.15;;;;;;;4.54;100.00;99375.91;10492458;28;20052;-79
2024/01/04 19:19:25;;;;;;;16.02;7.82;;;;;;;4.60;100.00;99374.63;10487946;28;20123;-79
2024/01/04 19:24:29;;;;;;;13.70;7.70;;;;;;;4.62;100.00;99381.53;10463009;28;21148;-79
2024/01/04 19:29:32;;;;;;;15.63;8.80;;;;;;;4.65;100.00;99379.63;10452604;28;20559;-80
2024/01/04 19:34:35;;;;;;;16.38;8.38;;;;;;;4.63;100.00;99379.72;10454255;28;20045;-80
2024/01/04 19:39:40;;;;;;;18.88;9.07;;;;;;;4.61;100.00;99382.50;10449682;28;20136;-80
2024/01/04 19:44:43;;;;;;;15.98;9.05;;;;;;;4.59;100.00;99375.59;10447778;28;20047;-79
2024/01/04 19:49:46;;;;;;;23.13;9.52;;;;;;;4.56;100.00;99362.53;10467586;28;20055;-79
2024/01/04 19:54:50;;;;;;;17.83;9.45;;;;;;;4.56;100.00;99360.69;10463504;28;20052;-80
2024/01/04 19:59:54;;;;;;;21.55;9.40;;;;;;;4.53;100.00;99354.78;10457914;28;20072;-80
2024/01/04 20:05:00;;;;;;;22.90;9.88;;;;;;;4.44;100.00;99352.75;10438449;28;20063;-78
2024/01/04 20:10:06;;;;;;;21.75;10.30;;;;;;;4.40;100.00;99354.78;10478426;28;20088;-79
2024/01/04 20:15:09;;;;;;;23.35;10.05;;;;;;;4.40;100.00;99368.94;10452361;28;20055;-80
2024/01/04 20:20:13;;;;;;;19.27;10.43;;;;;;;4.52;100.00;99367.19;10454878;28;20049;-78
2024/01/04 20:25:17;;;;;;;22.13;10.27;;;;;;;4.62;100.00;99372.72;10455134;28;20049;-79
2024/01/04 20:30:20;;;;;;;19.95;10.65;;;;;;;4.58;100.00;99373.88;10460350;28;21284;-79
2024/01/04 20:35:24;;;;;;;21.75;10.32;;;;;;;4.54;100.00;99373.25;10452425;28;20053;-80
2024/01/04 20:40:29;;;;;;;19.45;10.70;;;;;;;4.55;100.00;99376.75;10461019;28;20052;-81
2024/01/04 20:45:32;;;;;;;24.38;10.93;;;;;;;4.60;100.00;99378.13;10452589;28;20530;-81
2024/01/04 20:50:35;;;;;;;26.17;10.80;;;;;;;4.62;100.00;99372.72;10472236;28;20047;-82
2024/01/04 20:55:40;;;;;;;27.85;12.40;;;;;;;4.56;100.00;99373.16;10478951;28;20052;-80
2024/01/04 21:00:46;;;;;;;21.33;11.38;;;;;;;4.52;100.00;99380.50;10472431;28;20051;-78
2024/01/04 21:05:50;;;;;;;21.35;11.52;;;;;;;4.54;100.00;99375.06;10474495;28;20116;-80
2024/01/04 21:10:55;;;;;;;20.95;12.10;;;;;;;4.50;100.00;99373.56;10469295;28;20719;-78
2024/01/04 21:15:59;;;;;;;21.75;11.85;;;;;;;4.55;100.00;99382.06;10495714;28;20052;-81
2024/01/04 21:21:03;;;;;;;24.23;12.70;;;;;;;4.53;100.00;99371.56;10476979;28;20048;-79
2024/01/04 21:26:07;;;;;;;24.27;12.25;;;;;;;4.54;100.00;99367.09;10477363;28;20704;-79
2024/01/04 21:31:10;;;;;;;27.65;12.23;;;;;;;4.47;100.00;99366.69;10474561;28;20333;-81
2024/01/04 21:36:15;;;;;;;25.80;12.55;;;;;;;4.58;100.00;99369.44;10471166;28;20058;-80
2024/01/04 21:41:20;;;;;;;24.52;13.23;;;;;;;4.55;100.00;99364.34;10474703;28;20083;-80
2024/01/04 21:46:23;;;;;;;26.75;13.35;;;;;;;4.55;100.00;99359.03;10479954;28;20059;-81
2024/01/04 21:51:26;;;;;;;25.05;13.57;;;;;;;4.56;100.00;99362.53;10464564;28;20055;-80
2024/01/04 21:56:30;;;;;;;28.13;13.80;;;;;;;4.51;100.00;99351.38;10471557;28;20064;-82
2024/01/04 22:01:35;;;;;;;22.88;13.68;;;;;;;4.54;100.00;99330.69;10465540;28;20051;-79
2024/01/04 22:06:42;;;;;;;24.30;14.85;;;;;;;4.52;100.00;99340.59;10459294;28;20056;-78
2024/01/04 22:11:48;;;;;;;25.77;14.35;;;;;;;4.45;100.00;99333.19;10458306;28;20044;-77
2024/01/04 22:16:51;;;;;;;30.45;17.30;;;;;;;4.44;100.00;99332.31;10465457;28;20051;-80
2024/01/04 22:21:55;;;;;;;29.48;14.80;;;;;;;4.40;100.00;99317.56;10457713;28;20534;-79
2024/01/04 22:26:59;;;;;;;27.40;15.25;;;;;;;4.34;100.00;99310.88;10452541;28;20052;-78
2024/01/04 22:32:02;;;;;;;25.02;14.57;;;;;;;4.38;100.00;99301.72;10460869;28;20129;-79
2024/01/04 22:37:05;;;;;;;26.15;15.10;;;;;;;4.39;100.00;99300.78;10442079;28;20049;-78
2024/01/04 22:42:09;;;;;;;29.90;13.88;;;;;;;4.39;100.00;99295.44;10441315;28;20033;-79
2024/01/04 22:47:14;;;;;;;26.33;14.30;;;;;;;4.37;100.00;99297.38;10448279;28;20098;-78
2024/01/04 22:52:17;;;;;;;24.63;14.65;;;;;;;4.42;100.00;99309.50;10442021;28;20578;-78
2024/01/04 22:57:21;;;;;;;25.77;15.32;;;;;;;4.40;100.00;99297.13;10454143;28;20056;-78
2024/01/04 23:02:24;;;;;;;33.88;16.83;;;;;;;4.41;100.00;99297.97;10442535;28;20045;-79
2024/01/04 23:07:27;;;;;;;29.85;16.48;;;;;;;4.44;100.00;99292.44;10447136;28;21064;-80
2024/01/04 23:12:32;;;;;;;26.42;14.88;;;;;;;4.46;100.00;99279.88;10446659;28;20059;-81
2024/01/04 23:17:35;;;;;;;24.67;14.40;;;;;;;4.47;100.00;99270.09;10442639;28;20056;-80
2024/01/04 23:22:38;;;;;;;23.88;14.35;;;;;;;4.44;100.00;99257.03;10456687;28;20515;-78
2024/01/04 23:27:42;;;;;;;24.85;15.13;;;;;;;4.40;100.00;99246.63;10461217;28;20058;-78
2024/01/04 23:32:46;;;;;;;27.02;16.23;;;;;;;4.45;100.00;99248.94;10446535;28;20203;-80